Time;durP1;ratioP1;P1;durP2;ratioP2;P2;SDS_P1;SDS_P2;PMS_P1;PMS_P2;Temp;Humidity;BMP_temperature;BMP_pressure;BME280_temperature;BME280_humidity;BME280_pressure;Samples;Min_cycle;Max_cycle;Signal;HPM_P1;HPM_P2
2023/07/24 00:00:07;;;;;;;2.70;1.77;;;18.50;99.90;;;;;;5095327;28;20452;-57
2023/07/24 00:02:35;;;;;;;2.17;1.97;;;18.50;99.90;;;;;;5095055;28;20524;-57
2023/07/24 00:05:02;;;;;;;2.77;1.77;;;18.50;99.90;;;;;;5094286;28;20474;-57
2023/07/24 00:07:29;;;;;;;1.70;1.53;;;18.50;99.90;;;;;;5094763;28;20442;-58
2023/07/24 00:09:56;;;;;;;2.03;1.87;;;18.50;99.90;;;;;;5094283;28;20452;-57
2023/07/24 00:12:23;;;;;;;2.30;2.10;;;18.50;99.90;;;;;;5094099;28;20956;-58
2023/07/24 00:14:49;;;;;;;1.80;1.70;;;18.50;99.90;;;;;;5094604;28;20464;-58
2023/07/24 00:17:16;;;;;;;2.87;2.10;;;18.50;99.90;;;;;;5095107;28;20486;-59
2023/07/24 00:19:44;;;;;;;3.10;1.90;;;18.50;99.90;;;;;;5094510;28;20456;-57
2023/07/24 00:22:11;;;;;;;1.73;1.63;;;18.50;99.90;;;;;;5093692;28;21006;-58
2023/07/24 00:24:38;;;;;;;2.10;1.90;;;18.50;99.90;;;;;;5093926;28;20491;-57
2023/07/24 00:27:05;;;;;;;2.30;2.10;;;18.50;99.90;;;;;;5095155;28;20444;-58
2023/07/24 00:29:32;;;;;;;2.20;2.00;;;18.50;99.90;;;;;;5098176;28;20827;-58
2023/07/24 00:31:59;;;;;;;2.53;2.03;;;18.50;99.90;;;;;;5098512;28;20455;-58
2023/07/24 00:34:26;;;;;;;3.50;2.00;;;18.60;99.90;;;;;;5097649;28;20918;-58
2023/07/24 00:36:54;;;;;;;2.50;2.30;;;18.60;99.90;;;;;;5098273;28;20465;-57
2023/07/24 00:39:20;;;;;;;2.20;2.00;;;18.60;99.90;;;;;;5098167;28;20451;-57
2023/07/24 00:41:47;;;;;;;1.93;1.83;;;18.50;99.90;;;;;;5097966;28;20456;-58
2023/07/24 00:44:14;;;;;;;3.73;2.53;;;18.50;99.90;;;;;;5098261;28;20444;-58
2023/07/24 00:46:41;;;;;;;2.60;2.40;;;18.50;99.90;;;;;;5098048;28;20442;-57
2023/07/24 00:49:09;;;;;;;2.50;2.30;;;18.50;99.90;;;;;;5098217;28;20454;-58
2023/07/24 00:51:36;;;;;;;2.27;2.07;;;18.50;99.90;;;;;;5098196;28;20446;-58
2023/07/24 00:54:05;;;;;;;2.40;2.20;;;18.60;99.90;;;;;;5097669;28;20442;-57
2023/07/24 00:56:33;;;;;;;3.10;2.37;;;18.60;99.90;;;;;;5097218;28;20483;-57
2023/07/24 00:59:01;;;;;;;2.40;2.20;;;18.60;99.90;;;;;;5097383;28;20445;-57
2023/07/24 01:01:29;;;;;;;2.73;2.53;;;18.60;99.90;;;;;;5097253;28;20816;-57
2023/07/24 01:03:58;;;;;;;2.37;2.17;;;18.60;99.90;;;;;;5098268;28;20445;-57
2023/07/24 01:06:25;;;;;;;2.77;2.57;;;18.70;99.90;;;;;;5099367;28;20507;-59
2023/07/24 01:08:51;;;;;;;2.70;2.50;;;18.70;99.90;;;;;;5097712;28;20436;-59
2023/07/24 01:11:21;;;;;;;2.70;2.50;;;18.70;99.90;;;;;;5098079;28;20447;-58
2023/07/24 01:13:56;;;;;;;3.30;2.83;;;18.70;99.90;;;;;;5097601;28;20491;-57
2023/07/24 01:16:27;;;;;;;3.30;2.87;;;18.70;99.90;;;;;;5097266;28;20829;-58
2023/07/24 01:18:55;;;;;;;2.90;2.63;;;18.70;99.90;;;;;;5097343;28;20941;-58
2023/07/24 01:21:31;;;;;;;3.43;3.13;;;18.80;99.90;;;;;;5096985;28;20438;-58
2023/07/24 01:24:15;;;;;;;3.00;2.70;;;18.80;99.90;;;;;;5097087;28;20439;-58
2023/07/24 01:26:44;;;;;;;3.13;2.83;;;18.80;99.90;;;;;;5097098;28;20425;-59
2023/07/24 01:29:10;;;;;;;3.23;2.93;;;18.80;99.90;;;;;;5096629;28;20448;-57
2023/07/24 01:31:37;;;;;;;4.00;3.30;;;18.80;99.90;;;;;;5096881;28;20445;-57
2023/07/24 01:34:04;;;;;;;3.80;3.33;;;18.80;99.90;;;;;;5096874;28;20456;-56
2023/07/24 01:36:31;;;;;;;3.63;3.33;;;18.80;99.90;;;;;;5096235;28;20520;-58
2023/07/24 01:38:58;;;;;;;3.47;3.17;;;18.80;99.90;;;;;;5096362;28;20446;-58
2023/07/24 01:41:26;;;;;;;4.20;3.80;;;18.80;99.90;;;;;;5097049;28;20445;-57
2023/07/24 01:43:54;;;;;;;4.00;3.60;;;18.80;99.90;;;;;;5096707;28;20779;-57
2023/07/24 01:46:21;;;;;;;3.60;3.30;;;18.80;99.90;;;;;;5096677;28;20492;-58
2023/07/24 01:48:48;;;;;;;3.83;3.53;;;18.80;99.90;;;;;;5096928;28;20812;-55
2023/07/24 01:51:14;;;;;;;3.70;3.40;;;18.80;99.90;;;;;;5097150;28;20439;-56
2023/07/24 01:53:41;;;;;;;4.03;3.53;;;18.80;99.90;;;;;;5097533;28;20437;-56
2023/07/24 01:56:08;;;;;;;4.27;3.87;;;18.80;99.90;;;;;;5097517;28;20464;-57
2023/07/24 01:58:35;;;;;;;4.60;4.20;;;18.70;99.90;;;;;;5096199;28;20481;-56
2023/07/24 02:01:03;;;;;;;4.47;4.07;;;18.70;99.90;;;;;;5097005;28;20461;-58
2023/07/24 02:03:30;;;;;;;4.20;3.80;;;18.80;99.90;;;;;;5096506;28;20434;-58
2023/07/24 02:05:56;;;;;;;4.70;4.30;;;18.80;99.90;;;;;;5096445;28;20457;-57
2023/07/24 02:08:23;;;;;;;4.70;3.53;;;18.80;99.90;;;;;;5096924;28;20452;-59
2023/07/24 02:10:50;;;;;;;4.30;3.63;;;18.80;99.90;;;;;;5096863;28;20813;-56
2023/07/24 02:13:17;;;;;;;3.73;3.43;;;18.80;99.90;;;;;;5096423;28;20456;-57
2023/07/24 02:15:44;;;;;;;4.07;3.47;;;18.80;99.90;;;;;;5096382;28;20469;-58
2023/07/24 02:18:12;;;;;;;3.70;3.37;;;18.80;99.90;;;;;;5095668;28;20477;-57
2023/07/24 02:20:39;;;;;;;3.53;3.23;;;18.80;99.90;;;;;;5096959;28;20455;-56
2023/07/24 02:23:07;;;;;;;4.20;3.90;;;18.80;99.90;;;;;;5096665;28;20970;-57
2023/07/24 02:25:36;;;;;;;4.20;3.80;;;18.70;99.90;;;;;;5096292;28;20967;-57
2023/07/24 02:28:03;;;;;;;4.37;4.00;;;18.70;99.90;;;;;;5096207;28;20433;-57
2023/07/24 02:30:29;;;;;;;4.27;3.97;;;18.60;99.90;;;;;;5096097;28;20452;-58
2023/07/24 02:32:56;;;;;;;4.47;3.90;;;18.60;99.90;;;;;;5095770;28;20448;-57
2023/07/24 02:35:25;;;;;;;3.90;3.60;;;18.50;99.90;;;;;;5095045;28;20567;-57
2023/07/24 02:37:51;;;;;;;4.10;3.80;;;18.50;99.90;;;;;;5095737;28;20481;-58
2023/07/24 02:40:18;;;;;;;4.80;4.37;;;18.40;99.90;;;;;;5095767;28;20452;-57
2023/07/24 02:42:45;;;;;;;3.80;3.50;;;18.40;99.90;;;;;;5095139;28;20449;-58
2023/07/24 02:45:12;;;;;;;4.20;3.83;;;18.40;99.90;;;;;;5095064;28;20469;-56
2023/07/24 02:47:39;;;;;;;4.00;3.70;;;18.40;99.90;;;;;;5095282;28;20440;-58
2023/07/24 02:50:06;;;;;;;4.53;4.13;;;18.40;99.90;;;;;;5094425;28;20475;-57
2023/07/24 02:52:34;;;;;;;4.67;4.27;;;18.40;99.90;;;;;;5094803;28;20531;-55
2023/07/24 02:55:01;;;;;;;4.63;4.23;;;18.50;99.90;;;;;;5095091;28;20460;-56
2023/07/24 02:57:28;;;;;;;4.37;4.00;;;18.50;99.90;;;;;;5094435;28;20482;-57
2023/07/24 02:59:54;;;;;;;4.57;4.17;;;18.60;99.90;;;;;;5094481;28;20438;-57
2023/07/24 03:02:21;;;;;;;4.47;4.07;;;18.60;99.90;;;;;;5094031;28;20441;-57
2023/07/24 03:04:48;;;;;;;4.50;4.10;;;18.70;99.90;;;;;;5094652;28;20465;-57
2023/07/24 03:07:15;;;;;;;4.83;4.43;;;18.70;99.90;;;;;;5094100;28;20503;-58
2023/07/24 03:09:43;;;;;;;6.33;4.20;;;18.70;99.90;;;;;;5094044;28;20455;-58
2023/07/24 03:12:11;;;;;;;4.90;4.50;;;18.70;99.90;;;;;;5093812;28;20869;-58
2023/07/24 03:14:37;;;;;;;4.60;4.20;;;18.70;99.90;;;;;;5093981;28;20986;-57
2023/07/24 03:17:04;;;;;;;4.80;4.50;;;18.70;99.90;;;;;;5094854;28;20814;-58
2023/07/24 03:19:31;;;;;;;4.40;4.00;;;18.70;99.90;;;;;;5094438;28;20450;-57
2023/07/24 03:21:58;;;;;;;4.00;3.70;;;18.70;99.90;;;;;;5093811;28;20812;-57
2023/07/24 03:24:25;;;;;;;3.13;2.83;;;18.70;99.90;;;;;;5094388;28;20441;-58
2023/07/24 03:26:53;;;;;;;3.70;3.40;;;18.70;99.90;;;;;;5094533;28;20469;-56
2023/07/24 03:29:20;;;;;;;2.80;2.57;;;18.80;99.90;;;;;;5094227;28;20938;-56
2023/07/24 03:31:47;;;;;;;3.40;3.10;;;18.80;99.90;;;;;;5094163;28;20479;-58
2023/07/24 03:34:13;;;;;;;2.93;2.63;;;18.70;99.90;;;;;;5094124;28;20461;-57
2023/07/24 03:36:41;;;;;;;2.67;2.47;;;18.80;99.90;;;;;;5094681;28;21022;-57
2023/07/24 03:39:08;;;;;;;3.57;2.60;;;18.80;99.90;;;;;;5094161;28;20489;-57
2023/07/24 03:41:34;;;;;;;2.50;2.30;;;18.80;99.90;;;;;;5094339;28;20441;-57
2023/07/24 03:44:03;;;;;;;2.73;2.33;;;18.80;99.90;;;;;;5094032;28;20450;-57
2023/07/24 03:46:29;;;;;;;2.27;2.07;;;18.80;99.90;;;;;;5093752;28;20471;-57
2023/07/24 03:48:56;;;;;;;2.43;2.17;;;18.90;99.90;;;;;;5093671;28;20439;-57
2023/07/24 03:51:23;;;;;;;3.10;2.37;;;18.90;99.90;;;;;;5093951;28;20452;-57
2023/07/24 03:53:50;;;;;;;2.63;2.43;;;18.90;99.90;;;;;;5093876;28;20449;-57
2023/07/24 03:56:17;;;;;;;2.80;2.00;;;18.90;99.90;;;;;;5100681;28;20832;-57
2023/07/24 03:58:43;;;;;;;2.30;2.10;;;18.90;99.90;;;;;;5103129;28;21115;-59
2023/07/24 04:01:12;;;;;;;3.70;2.90;;;18.90;99.90;;;;;;5100218;28;20451;-56
2023/07/24 04:03:38;;;;;;;2.37;2.17;;;18.90;99.90;;;;;;5093697;28;20453;-56
2023/07/24 04:06:05;;;;;;;2.23;1.80;;;18.90;99.90;;;;;;5093911;28;20974;-57
2023/07/24 04:12:01;;;;;;;3.40;2.27;;;18.90;99.90;;;;;;5113219;27;20605;-58
2023/07/24 04:14:27;;;;;;;5.37;2.30;;;19.10;99.90;;;;;;5112011;28;20486;-58
2023/07/24 04:16:55;;;;;;;3.53;2.80;;;19.50;99.90;;;;;;5112035;28;20484;-57
2023/07/24 04:19:22;;;;;;;3.40;2.63;;;19.60;99.90;;;;;;5111630;28;20495;-58
2023/07/24 04:21:48;;;;;;;3.10;2.50;;;19.70;99.90;;;;;;5111643;28;20434;-57
2023/07/24 04:24:15;;;;;;;2.50;2.30;;;19.70;99.90;;;;;;5111586;28;20446;-58
2023/07/24 04:26:42;;;;;;;2.63;2.10;;;19.80;99.90;;;;;;5112303;28;20529;-57
2023/07/24 04:29:10;;;;;;;2.77;2.50;;;20.10;99.90;;;;;;5112242;28;20460;-57
2023/07/24 04:31:37;;;;;;;2.80;2.03;;;20.20;99.90;;;;;;5110892;28;20469;-58
2023/07/24 04:34:04;;;;;;;4.30;3.90;;;20.10;99.90;;;;;;5112077;28;20447;-58
2023/07/24 04:36:30;;;;;;;2.50;2.30;;;20.00;99.90;;;;;;5110920;28;20470;-57
2023/07/24 04:38:57;;;;;;;2.77;2.10;;;19.80;99.90;;;;;;5111242;28;20442;-58
2023/07/24 04:41:24;;;;;;;2.50;2.10;;;19.80;99.90;;;;;;5111123;28;20576;-58
2023/07/24 04:43:51;;;;;;;3.83;2.60;;;19.70;99.90;;;;;;5110436;28;20446;-57
2023/07/24 04:46:19;;;;;;;2.33;1.77;;;19.70;99.90;;;;;;5113227;28;20470;-59
2023/07/24 04:48:46;;;;;;;2.47;2.10;;;20.00;99.90;;;;;;5113206;28;20448;-58
2023/07/24 04:51:12;;;;;;;3.33;1.83;;;20.40;99.90;;;;;;5110430;28;20477;-57
2023/07/24 04:53:39;;;;;;;2.27;1.93;;;21.00;99.90;;;;;;5111183;28;20457;-57
2023/07/24 04:56:06;;;;;;;3.07;2.20;;;21.30;99.90;;;;;;5110402;28;20461;-58
2023/07/24 04:58:33;;;;;;;2.33;2.07;;;21.40;99.90;;;;;;5110583;28;20438;-58
2023/07/24 05:01:03;;;;;;;3.47;2.10;;;21.30;99.90;;;;;;5109856;28;20951;-57
2023/07/24 05:03:31;;;;;;;2.07;1.87;;;21.10;99.90;;;;;;5111752;28;20511;-57
2023/07/24 05:05:58;;;;;;;2.23;2.00;;;20.90;99.90;;;;;;5111591;28;20458;-57
2023/07/24 05:08:25;;;;;;;3.33;2.33;;;20.70;99.90;;;;;;5111160;28;20445;-56
2023/07/24 05:10:56;;;;;;;2.43;2.17;;;20.60;99.90;;;;;;5110480;28;21006;-59
2023/07/24 05:13:23;;;;;;;3.00;2.10;;;20.60;99.90;;;;;;5111194;28;20430;-58
2023/07/24 05:15:49;;;;;;;2.20;1.83;;;20.90;99.90;;;;;;5110440;28;20464;-59
2023/07/24 05:18:16;;;;;;;1.97;1.77;;;21.30;99.90;;;;;;5110601;28;20931;-58
2023/07/24 05:20:51;;;;;;;2.43;2.23;;;21.50;99.90;;;;;;5110503;28;20445;-60
2023/07/24 05:23:18;;;;;;;3.63;2.60;;;21.90;99.90;;;;;;5097168;28;20473;-58
2023/07/24 05:25:44;;;;;;;2.30;1.93;;;22.40;99.90;;;;;;5096577;28;20569;-59
2023/07/24 05:28:11;;;;;;;2.07;1.87;;;22.70;99.90;;;;;;5096354;28;20445;-59
2023/07/24 05:30:38;;;;;;;4.60;2.50;;;23.00;99.90;;;;;;5096661;28;20481;-57
2023/07/24 05:33:05;;;;;;;2.00;1.70;;;23.20;99.90;;;;;;5097611;28;20474;-57
2023/07/24 05:35:32;;;;;;;3.73;3.03;;;23.40;98.50;;;;;;5097686;28;20535;-58
2023/07/24 05:38:00;;;;;;;3.03;2.60;;;23.40;97.70;;;;;;5098879;28;20442;-59
2023/07/24 05:40:27;;;;;;;3.20;2.60;;;23.40;97.00;;;;;;5098437;28;20442;-59
2023/07/24 05:42:54;;;;;;;2.50;2.03;;;23.30;96.20;;;;;;5099495;28;20989;-58
2023/07/24 05:45:21;;;;;;;2.83;2.17;;;23.10;95.80;;;;;;5097891;28;20465;-58
2023/07/24 05:47:48;;;;;;;2.00;1.53;;;22.80;96.00;;;;;;5097348;28;20442;-57
2023/07/24 05:50:15;;;;;;;4.00;2.30;;;22.50;96.40;;;;;;5096397;28;20442;-57
2023/07/24 05:52:41;;;;;;;3.20;2.43;;;22.10;97.30;;;;;;5096855;28;20446;-58
2023/07/24 05:55:10;;;;;;;2.90;2.23;;;21.70;98.70;;;;;;5096783;28;20463;-58
2023/07/24 05:57:37;;;;;;;4.13;2.27;;;21.40;99.90;;;;;;5096727;28;20473;-59
2023/07/24 06:00:04;;;;;;;2.93;2.20;;;21.10;99.90;;;;;;5097699;28;20449;-59
2023/07/24 06:02:31;;;;;;;3.90;2.37;;;20.80;99.90;;;;;;5096399;28;20469;-60
2023/07/24 06:04:58;;;;;;;4.63;3.27;;;20.60;99.90;;;;;;5095504;28;20984;-58
2023/07/24 06:07:25;;;;;;;3.90;2.77;;;20.40;99.90;;;;;;5095859;28;20940;-56
2023/07/24 06:09:52;;;;;;;4.37;2.53;;;20.30;99.90;;;;;;5095643;28;20463;-59
2023/07/24 06:12:20;;;;;;;2.73;2.10;;;20.30;99.90;;;;;;5096707;28;20463;-57
2023/07/24 06:14:47;;;;;;;2.70;2.50;;;20.20;99.90;;;;;;5096476;28;20991;-58
2023/07/24 06:17:13;;;;;;;3.23;2.17;;;20.20;99.90;;;;;;5095988;28;20936;-58
2023/07/24 06:19:40;;;;;;;3.30;2.43;;;20.20;99.90;;;;;;5096579;28;20466;-57
2023/07/24 06:22:08;;;;;;;2.50;2.10;;;20.30;99.90;;;;;;5096876;28;20442;-59
2023/07/24 06:24:35;;;;;;;2.57;2.03;;;20.20;99.90;;;;;;5098397;28;20465;-56
2023/07/24 06:27:02;;;;;;;2.57;2.17;;;20.20;99.90;;;;;;5095710;28;20637;-56
2023/07/24 06:29:30;;;;;;;2.90;2.47;;;20.20;99.90;;;;;;5095909;28;20451;-57
2023/07/24 06:31:57;;;;;;;2.80;2.37;;;20.40;99.90;;;;;;5095950;28;20474;-59
2023/07/24 06:34:23;;;;;;;3.27;2.23;;;20.50;99.90;;;;;;5094871;28;20449;-59
2023/07/24 06:36:50;;;;;;;3.47;2.57;;;20.70;99.90;;;;;;5095847;28;20534;-57
2023/07/24 06:39:17;;;;;;;3.23;2.47;;;20.80;99.90;;;;;;5096968;28;20473;-60
2023/07/24 06:41:44;;;;;;;4.13;2.33;;;20.90;99.90;;;;;;5096414;28;20450;-58
2023/07/24 06:44:10;;;;;;;4.70;2.30;;;20.90;99.90;;;;;;5095637;28;20449;-59
2023/07/24 06:46:39;;;;;;;2.67;2.30;;;20.90;99.90;;;;;;5096448;28;20454;-59
2023/07/24 06:49:05;;;;;;;3.90;3.60;;;20.80;99.90;;;;;;5096589;28;20442;-59
2023/07/24 06:51:32;;;;;;;2.83;2.53;;;20.70;99.90;;;;;;5095858;28;20478;-57
2023/07/24 06:53:59;;;;;;;3.33;3.00;;;20.70;99.90;;;;;;5095785;28;20438;-59
2023/07/24 06:56:26;;;;;;;3.87;2.90;;;20.70;99.90;;;;;;5095575;28;20470;-57
2023/07/24 06:58:53;;;;;;;3.80;3.30;;;20.70;99.90;;;;;;5095094;28;21018;-57
2023/07/24 07:01:20;;;;;;;6.93;2.83;;;20.70;99.90;;;;;;5094902;28;20467;-57
2023/07/24 07:03:48;;;;;;;2.90;2.27;;;20.60;99.90;;;;;;5095049;28;20530;-58
2023/07/24 07:06:14;;;;;;;2.73;2.00;;;20.60;99.90;;;;;;5095049;28;20473;-58
2023/07/24 07:08:41;;;;;;;3.57;3.10;;;20.60;99.90;;;;;;5096842;28;20785;-58
2023/07/24 07:11:08;;;;;;;3.10;2.30;;;20.60;99.90;;;;;;5097652;28;20486;-57
2023/07/24 07:13:35;;;;;;;3.90;2.63;;;20.60;99.90;;;;;;5100568;28;20456;-58
2023/07/24 07:16:02;;;;;;;3.67;2.70;;;20.60;99.90;;;;;;5101496;28;20814;-58
2023/07/24 07:18:28;;;;;;;2.83;2.53;;;20.50;99.90;;;;;;5104468;28;20467;-58
2023/07/24 07:20:57;;;;;;;2.80;2.43;;;20.50;99.90;;;;;;5104996;28;20465;-58
2023/07/24 07:23:24;;;;;;;3.10;2.80;;;20.50;99.90;;;;;;5104898;28;20445;-59
2023/07/24 07:25:52;;;;;;;5.50;3.37;;;20.40;99.90;;;;;;5099047;28;20582;-57
2023/07/24 07:28:18;;;;;;;2.77;2.47;;;20.40;99.90;;;;;;5096802;28;20449;-58
2023/07/24 07:30:45;;;;;;;4.40;3.00;;;20.30;99.90;;;;;;5095952;28;20464;-59
2023/07/24 07:33:12;;;;;;;5.33;2.77;;;20.10;99.90;;;;;;5095787;28;20922;-60
2023/07/24 07:35:39;;;;;;;3.93;3.40;;;19.90;99.90;;;;;;5095363;28;21009;-61
2023/07/24 07:38:07;;;;;;;6.20;3.23;;;19.60;99.90;;;;;;5096101;28;20441;-59
2023/07/24 07:40:34;;;;;;;6.20;3.60;;;19.30;99.90;;;;;;5094940;28;20450;-61
2023/07/24 07:43:01;;;;;;;9.00;3.27;;;18.90;99.90;;;;;;5095286;28;20444;-60
2023/07/24 07:45:27;;;;;;;6.73;3.50;;;18.70;99.90;;;;;;5095431;28;20469;-60
2023/07/24 07:47:54;;;;;;;5.47;3.57;;;18.50;99.90;;;;;;5095739;28;20449;-60
2023/07/24 07:50:21;;;;;;;5.00;3.37;;;18.30;99.90;;;;;;5095575;28;20441;-60
2023/07/24 07:52:51;;;;;;;5.53;3.97;;;18.30;99.90;;;;;;5095565;28;20495;-61
2023/07/24 07:55:20;;;;;;;5.67;3.90;;;18.20;99.90;;;;;;5095069;28;20468;-59
2023/07/24 07:57:47;;;;;;;6.50;3.87;;;18.20;99.90;;;;;;5097860;28;20517;-60
2023/07/24 08:00:14;;;;;;;7.90;3.90;;;18.10;99.90;;;;;;5102148;28;20437;-59
2023/07/24 08:02:41;;;;;;;7.77;4.47;;;18.00;99.90;;;;;;5097822;28;20507;-60
2023/07/24 08:05:09;;;;;;;6.53;4.20;;;18.00;99.90;;;;;;5094768;28;20473;-60
2023/07/24 08:07:35;;;;;;;6.17;4.10;;;18.00;99.90;;;;;;5095915;28;20523;-59
2023/07/24 08:10:02;;;;;;;5.70;3.50;;;18.10;99.90;;;;;;5096421;28;20449;-60
2023/07/24 08:12:30;;;;;;;6.63;3.77;;;18.20;99.90;;;;;;5095970;28;20564;-58
2023/07/24 08:14:57;;;;;;;4.27;3.70;;;18.30;99.90;;;;;;5095322;28;20833;-58
2023/07/24 08:17:24;;;;;;;7.90;3.93;;;18.40;99.90;;;;;;5095688;28;20450;-59
2023/07/24 08:19:51;;;;;;;4.70;3.70;;;18.50;99.90;;;;;;5096518;28;20446;-59
2023/07/24 08:22:19;;;;;;;6.27;3.77;;;18.60;99.90;;;;;;5097130;28;20442;-60
2023/07/24 08:24:46;;;;;;;3.73;3.43;;;18.60;99.90;;;;;;5096808;28;20522;-60
2023/07/24 08:27:13;;;;;;;6.70;4.47;;;18.70;99.90;;;;;;5096322;28;20460;-59
2023/07/24 08:29:41;;;;;;;3.47;3.17;;;18.90;99.90;;;;;;5095912;28;20443;-60
2023/07/24 08:32:08;;;;;;;4.43;3.30;;;19.00;99.90;;;;;;5096187;28;20486;-60
2023/07/24 08:34:35;;;;;;;4.60;3.10;;;19.10;99.90;;;;;;5095545;28;20548;-59
2023/07/24 08:37:02;;;;;;;8.63;6.23;;;19.10;99.90;;;;;;5095388;28;20456;-61
2023/07/24 08:39:29;;;;;;;5.53;4.17;;;19.00;99.90;;;;;;5095671;28;20513;-60
2023/07/24 08:41:57;;;;;;;5.57;3.53;;;19.00;99.90;;;;;;5097960;28;20434;-58
2023/07/24 08:44:25;;;;;;;4.03;3.67;;;18.90;99.90;;;;;;5096965;28;20456;-59
2023/07/24 08:46:53;;;;;;;4.57;4.10;;;18.90;99.90;;;;;;5096660;28;20443;-60
2023/07/24 08:49:20;;;;;;;4.23;3.57;;;19.00;99.90;;;;;;5096494;28;20454;-59
2023/07/24 08:51:48;;;;;;;5.07;4.03;;;19.10;99.90;;;;;;5097456;28;20484;-58
2023/07/24 08:54:16;;;;;;;4.40;3.83;;;19.10;99.90;;;;;;5096880;28;20820;-60
2023/07/24 08:56:47;;;;;;;6.40;4.40;;;19.40;99.90;;;;;;5098214;28;20473;-59
2023/07/24 08:59:14;;;;;;;5.90;3.70;;;19.80;99.90;;;;;;5101111;28;20434;-59
2023/07/24 09:01:40;;;;;;;5.70;3.80;;;20.30;99.90;;;;;;5100362;28;20583;-59
2023/07/24 09:04:09;;;;;;;5.80;4.07;;;20.70;99.90;;;;;;5102163;28;20444;-60
2023/07/24 09:06:36;;;;;;;4.47;4.07;;;21.00;99.90;;;;;;5101287;28;20435;-60
2023/07/24 09:09:03;;;;;;;4.47;4.07;;;21.20;99.90;;;;;;5101657;28;20465;-60
2023/07/24 09:11:30;;;;;;;5.23;4.73;;;21.30;99.90;;;;;;5101165;28;20535;-59
2023/07/24 09:13:57;;;;;;;4.40;4.00;;;21.30;99.90;;;;;;5100291;28;20449;-60
2023/07/24 09:16:25;;;;;;;6.43;4.40;;;21.40;99.90;;;;;;5100526;28;20533;-60
2023/07/24 09:18:52;;;;;;;4.63;4.07;;;21.50;99.90;;;;;;5101004;28;20453;-59
2023/07/24 09:21:29;;;;;;;4.40;4.00;;;21.50;99.90;;;;;;5100963;28;20538;-59
2023/07/24 09:23:57;;;;;;;5.20;4.70;;;21.70;99.90;;;;;;5100838;28;20433;-60
2023/07/24 09:26:24;;;;;;;4.50;4.10;;;22.00;99.90;;;;;;5100474;28;20898;-59
2023/07/24 09:28:54;;;;;;;4.27;3.93;;;22.30;99.90;;;;;;5101770;28;20461;-60
2023/07/24 09:31:21;;;;;;;5.20;4.00;;;22.70;99.90;;;;;;5101230;28;20914;-60
2023/07/24 09:33:48;;;;;;;6.07;4.27;;;22.90;99.90;;;;;;5100139;28;20454;-59
2023/07/24 09:36:15;;;;;;;5.97;4.50;;;23.20;99.90;;;;;;5099375;28;20493;-60
2023/07/24 09:38:43;;;;;;;4.80;4.20;;;23.40;99.90;;;;;;5115243;22;20536;-59
2023/07/24 09:41:11;;;;;;;7.00;4.00;;;23.70;99.90;;;;;;5037419;28;20461;-58
2023/07/24 09:43:38;;;;;;;6.43;5.83;;;23.90;99.90;;;;;;5035757;28;20449;-59
2023/07/24 09:46:06;;;;;;;4.70;4.17;;;24.10;99.90;;;;;;5041499;28;20477;-58
2023/07/24 09:48:34;;;;;;;4.37;3.77;;;24.30;99.90;;;;;;5035474;28;20450;-58
2023/07/24 09:51:02;;;;;;;4.60;4.20;;;24.60;99.90;;;;;;5035547;28;20452;-57
2023/07/24 09:53:34;;;;;;;4.17;3.87;;;24.80;99.90;;;;;;5035724;28;20564;-59
2023/07/24 09:56:05;;;;;;;4.93;4.53;;;24.60;99.90;;;;;;5035634;28;20944;-57
2023/07/24 09:58:34;;;;;;;4.73;4.33;;;24.40;99.90;;;;;;5035511;28;20430;-58
2023/07/24 10:01:02;;;;;;;4.43;3.90;;;24.40;99.90;;;;;;5035157;28;20440;-58
2023/07/24 10:03:30;;;;;;;4.43;4.03;;;24.60;99.90;;;;;;5036264;28;20476;-59
2023/07/24 10:05:57;;;;;;;4.50;4.10;;;24.60;99.90;;;;;;5034833;28;20451;-58
2023/07/24 10:08:25;;;;;;;7.70;4.20;;;24.50;99.90;;;;;;5034927;28;20544;-57
2023/07/24 10:10:53;;;;;;;4.23;3.93;;;24.20;99.90;;;;;;5035143;28;20441;-58
2023/07/24 10:13:22;;;;;;;4.90;4.50;;;24.10;99.90;;;;;;5034966;28;20577;-58
2023/07/24 10:15:50;;;;;;;6.33;5.13;;;24.10;99.90;;;;;;5034917;28;20786;-57
2023/07/24 10:18:18;;;;;;;8.20;5.17;;;24.20;99.90;;;;;;5035710;28;20457;-59
2023/07/24 10:20:45;;;;;;;5.30;4.80;;;24.30;99.90;;;;;;5035448;28;20524;-59
2023/07/24 10:23:17;;;;;;;4.27;3.87;;;24.50;99.90;;;;;;5034899;28;20445;-58
2023/07/24 10:25:46;;;;;;;4.60;4.20;;;24.50;99.10;;;;;;5034831;28;20529;-58
2023/07/24 10:28:16;;;;;;;4.37;3.97;;;24.60;98.40;;;;;;5035764;28;20487;-58
2023/07/24 10:30:44;;;;;;;3.70;3.40;;;24.60;97.70;;;;;;5035199;28;20473;-59
2023/07/24 10:33:13;;;;;;;4.40;3.63;;;24.40;96.90;;;;;;5034650;28;20584;-59
2023/07/24 10:35:45;;;;;;;5.07;4.30;;;24.20;96.80;;;;;;5034183;28;20953;-57
2023/07/24 10:38:13;;;;;;;4.13;3.73;;;24.20;96.50;;;;;;5035166;28;20516;-57
2023/07/24 10:40:41;;;;;;;4.20;3.90;;;24.20;95.80;;;;;;5033860;28;21058;-57
2023/07/24 10:43:09;;;;;;;5.13;4.63;;;24.30;95.10;;;;;;5034250;28;20532;-59
2023/07/24 10:45:50;;;;;;;5.73;4.30;;;24.50;94.60;;;;;;5034084;28;20460;-59
2023/07/24 10:48:17;;;;;;;4.63;4.23;;;24.60;93.30;;;;;;5034127;28;20875;-59
2023/07/24 10:50:45;;;;;;;4.10;3.70;;;24.70;92.50;;;;;;5033875;28;20465;-60
2023/07/24 10:53:15;;;;;;;4.60;4.20;;;24.70;91.90;;;;;;5034492;28;20999;-60
2023/07/24 10:55:42;;;;;;;4.40;3.70;;;24.70;91.20;;;;;;5034675;28;20460;-59
2023/07/24 10:58:10;;;;;;;6.40;4.43;;;24.80;91.20;;;;;;5034790;28;20445;-57
2023/07/24 11:00:37;;;;;;;5.13;4.73;;;24.80;90.30;;;;;;5034034;28;20838;-59
2023/07/24 11:03:06;;;;;;;5.60;5.07;;;24.70;88.50;;;;;;5034251;28;20459;-60
2023/07/24 11:05:33;;;;;;;5.43;4.77;;;24.60;88.20;;;;;;5034208;28;20484;-58
2023/07/24 11:08:00;;;;;;;5.77;4.30;;;24.50;87.40;;;;;;5033929;28;20813;-60
2023/07/24 11:10:29;;;;;;;5.53;5.13;;;24.40;86.20;;;;;;5035971;28;20813;-60
2023/07/24 11:12:57;;;;;;;5.87;5.37;;;24.40;85.30;;;;;;5038754;28;20484;-58
2023/07/24 11:15:27;;;;;;;5.33;4.83;;;24.50;84.70;;;;;;5039318;28;20503;-58
2023/07/24 11:17:55;;;;;;;5.43;4.93;;;24.70;83.00;;;;;;5039221;28;20523;-55
2023/07/24 11:20:23;;;;;;;5.90;5.40;;;24.60;81.80;;;;;;5038745;28;20500;-60
2023/07/24 11:22:50;;;;;;;5.70;5.20;;;24.70;80.80;;;;;;5039786;28;20441;-60
2023/07/24 11:25:17;;;;;;;5.80;5.30;;;24.70;80.10;;;;;;5039998;28;20544;-58
2023/07/24 11:27:49;;;;;;;5.60;5.10;;;24.70;79.00;;;;;;5041893;28;20451;-58
2023/07/24 11:30:21;;;;;;;5.67;5.17;;;24.50;77.90;;;;;;5035307;28;20521;-59
2023/07/24 11:32:49;;;;;;;6.53;5.10;;;24.30;78.70;;;;;;5035396;28;20859;-59
2023/07/24 11:35:16;;;;;;;5.47;4.90;;;24.10;79.30;;;;;;5034619;28;20450;-58
2023/07/24 11:37:44;;;;;;;5.17;4.70;;;24.00;79.70;;;;;;5034718;28;20449;-59
2023/07/24 11:40:14;;;;;;;6.80;6.20;;;23.80;80.30;;;;;;5034155;28;20473;-58
2023/07/24 11:42:43;;;;;;;5.17;4.77;;;23.80;80.60;;;;;;5038832;28;20985;-59
2023/07/24 11:45:10;;;;;;;6.23;5.73;;;23.80;79.90;;;;;;5035006;28;20461;-59
2023/07/24 11:47:48;;;;;;;5.93;5.30;;;23.60;80.40;;;;;;5034456;28;20515;-60
2023/07/24 11:50:16;;;;;;;5.63;5.13;;;23.50;82.00;;;;;;5034066;28;20465;-60
2023/07/24 11:52:46;;;;;;;6.87;4.30;;;23.30;82.70;;;;;;5033790;28;21025;-59
2023/07/24 11:55:13;;;;;;;4.50;4.10;;;22.90;87.70;;;;;;5033876;28;20492;-57
2023/07/24 11:57:40;;;;;;;4.63;4.23;;;22.50;93.30;;;;;;5034446;28;20457;-59
2023/07/24 12:00:21;;;;;;;4.97;4.47;;;22.10;98.90;;;;;;5035217;28;20845;-61
2023/07/24 12:02:48;;;;;;;5.00;4.47;;;21.90;99.90;;;;;;5034592;28;20915;-59
2023/07/24 12:05:15;;;;;;;7.33;4.43;;;22.00;99.90;;;;;;5034151;28;20539;-59
2023/07/24 12:07:46;;;;;;;4.60;4.20;;;22.20;99.90;;;;;;5033851;28;20532;-58
2023/07/24 12:10:13;;;;;;;4.90;4.50;;;22.40;99.90;;;;;;5033836;28;21049;-59
2023/07/24 12:12:43;;;;;;;6.00;4.83;;;22.40;99.90;;;;;;5034958;28;20998;-60
2023/07/24 12:15:11;;;;;;;5.07;4.57;;;22.50;99.90;;;;;;5036432;28;20456;-58
2023/07/24 12:17:38;;;;;;;5.63;5.13;;;22.40;99.90;;;;;;5036297;28;20449;-58
2023/07/24 12:20:08;;;;;;;5.30;4.90;;;22.10;99.90;;;;;;5038784;28;20475;-60
2023/07/24 12:22:34;;;;;;;5.33;4.83;;;21.80;99.90;;;;;;5036300;28;20499;-59
2023/07/24 12:25:03;;;;;;;5.17;4.67;;;21.60;99.90;;;;;;5036243;28;20524;-59
2023/07/24 12:27:30;;;;;;;5.63;5.00;;;21.60;99.90;;;;;;5037010;28;20460;-58
2023/07/24 12:29:58;;;;;;;7.10;5.57;;;21.60;99.90;;;;;;5034836;28;20468;-60
2023/07/24 12:32:25;;;;;;;6.03;5.40;;;21.50;99.90;;;;;;5035260;28;20449;-59
2023/07/24 12:34:52;;;;;;;5.93;5.03;;;21.20;99.90;;;;;;5037354;28;20970;-59
2023/07/24 12:37:19;;;;;;;5.60;5.10;;;20.90;99.90;;;;;;5038467;28;20536;-58
2023/07/24 12:39:47;;;;;;;7.33;6.63;;;20.70;99.90;;;;;;5037364;28;20499;-59
2023/07/24 12:42:16;;;;;;;7.60;6.77;;;20.50;99.90;;;;;;5038129;28;20450;-60
2023/07/24 12:44:43;;;;;;;7.67;6.13;;;20.30;99.90;;;;;;5037089;28;20449;-62
2023/07/24 12:47:11;;;;;;;7.10;6.43;;;20.20;99.90;;;;;;5037190;28;20480;-60
2023/07/24 12:49:38;;;;;;;8.43;7.17;;;20.10;99.90;;;;;;5037428;28;20476;-60
2023/07/24 12:52:05;;;;;;;8.77;7.67;;;20.00;99.90;;;;;;5037217;28;20445;-61